Time;durP1;ratioP1;P1;durP2;ratioP2;P2;SDS_P1;SDS_P2;PMS_P1;PMS_P2;Temp;Humidity;BMP_temperature;BMP_pressure;BME280_temperature;BME280_humidity;BME280_pressure;Samples;Min_cycle;Max_cycle;Signal;HPM_P1;HPM_P2
2023/10/25 00:00:32;;;;;;;19.40;13.70;;;;;;;;;;5050755;28;20449;-80
2023/10/25 00:02:59;;;;;;;16.83;13.20;;;;;;;;;;5044870;28;20894;-80
2023/10/25 00:05:27;;;;;;;18.40;13.23;;;;;;;;;;5045303;28;20659;-80
2023/10/25 00:07:54;;;;;;;18.60;14.07;;;;;;;;;;5047097;28;20868;-80
2023/10/25 00:10:22;;;;;;;22.43;13.47;;;;;;;;;;5048689;28;20557;-79
2023/10/25 00:12:51;;;;;;;20.50;15.63;;;;;;;;;;5051528;28;20486;-79
2023/10/25 00:15:18;;;;;;;18.80;14.00;;;;;;;;;;5051238;28;20454;-78
2023/10/25 00:17:51;;;;;;;23.83;14.87;;;;;;;;;;5052052;28;20454;-79
2023/10/25 00:20:18;;;;;;;18.97;14.60;;;;;;;;;;5050216;28;20458;-79
2023/10/25 00:22:46;;;;;;;19.13;12.53;;;;;;;;;;5050934;28;20446;-81
2023/10/25 00:25:13;;;;;;;19.77;14.10;;;;;;;;;;5050573;28;20483;-78
2023/10/25 00:27:41;;;;;;;23.17;13.43;;;;;;;;;;5050801;28;20458;-80
2023/10/25 00:30:10;;;;;;;17.63;12.67;;;;;;;;;;5053262;28;20474;-78
2023/10/25 00:32:38;;;;;;;19.47;12.50;;;;;;;;;;5051788;28;20524;-80
2023/10/25 00:35:05;;;;;;;22.47;13.27;;;;;;;;;;5051861;28;20709;-79
2023/10/25 00:37:33;;;;;;;20.33;12.97;;;;;;;;;;5053453;28;20450;-78
2023/10/25 00:40:05;;;;;;;25.00;14.27;;;;;;;;;;5057691;28;20459;-80
2023/10/25 00:42:33;;;;;;;21.80;13.33;;;;;;;;;;5051946;28;20438;-81
2023/10/25 00:45:00;;;;;;;20.43;13.23;;;;;;;;;;5050742;28;20446;-81
2023/10/25 00:47:29;;;;;;;20.07;13.23;;;;;;;;;;5053049;28;20979;-81
2023/10/25 00:49:57;;;;;;;23.30;15.33;;;;;;;;;;5054329;28;20453;-79
2023/10/25 00:52:24;;;;;;;17.83;13.27;;;;;;;;;;5050993;28;20450;-80
2023/10/25 00:54:52;;;;;;;20.23;14.30;;;;;;;;;;5052640;28;20641;-79
2023/10/25 00:57:20;;;;;;;22.97;15.73;;;;;;;;;;5048276;28;20560;-79
2023/10/25 00:59:47;;;;;;;22.33;13.57;;;;;;;;;;5050987;28;20455;-80
2023/10/25 01:02:15;;;;;;;17.20;12.37;;;;;;;;;;5051400;28;20472;-80
2023/10/25 01:04:44;;;;;;;16.97;13.30;;;;;;;;;;5052170;28;20473;-80
2023/10/25 01:07:12;;;;;;;19.77;14.40;;;;;;;;;;5051404;28;20497;-81
2023/10/25 01:09:39;;;;;;;19.83;13.93;;;;;;;;;;5050794;28;20469;-81
2023/10/25 01:12:08;;;;;;;21.07;15.47;;;;;;;;;;5053612;28;20506;-80
2023/10/25 01:14:35;;;;;;;19.63;13.20;;;;;;;;;;5053051;28;20493;-80
2023/10/25 01:17:04;;;;;;;19.27;13.57;;;;;;;;;;5054606;28;20434;-79
2023/10/25 01:19:34;;;;;;;18.77;13.70;;;;;;;;;;5053212;28;20454;-80
2023/10/25 01:22:06;;;;;;;20.93;14.40;;;;;;;;;;5049985;28;20438;-80
2023/10/25 01:24:35;;;;;;;19.60;13.13;;;;;;;;;;5050392;28;20455;-80
2023/10/25 01:27:02;;;;;;;19.67;13.70;;;;;;;;;;5049924;28;20482;-79
2023/10/25 01:29:30;;;;;;;21.43;14.43;;;;;;;;;;5050726;28;20454;-81
2023/10/25 01:31:57;;;;;;;19.10;11.83;;;;;;;;;;5050902;28;20814;-79
2023/10/25 01:34:24;;;;;;;18.63;13.50;;;;;;;;;;5048246;28;20525;-80
2023/10/25 01:36:52;;;;;;;19.00;13.47;;;;;;;;;;5050087;28;20469;-80
2023/10/25 01:39:19;;;;;;;20.43;14.77;;;;;;;;;;5049983;28;20515;-79
2023/10/25 01:41:48;;;;;;;22.20;14.33;;;;;;;;;;5051687;28;20456;-79
2023/10/25 01:44:16;;;;;;;19.97;13.70;;;;;;;;;;5049554;28;20525;-81
2023/10/25 01:46:43;;;;;;;20.27;15.40;;;;;;;;;;5050031;28;20496;-81
2023/10/25 01:49:10;;;;;;;20.43;13.50;;;;;;;;;;5048981;28;20556;-82
2023/10/25 01:51:38;;;;;;;19.03;13.27;;;;;;;;;;5053447;28;20489;-81
2023/10/25 01:54:06;;;;;;;23.87;13.07;;;;;;;;;;5051594;28;20464;-80
2023/10/25 01:56:33;;;;;;;20.20;14.23;;;;;;;;;;5055281;28;20518;-80
2023/10/25 01:59:06;;;;;;;23.50;14.43;;;;;;;;;;5055800;28;20489;-80
2023/10/25 02:01:33;;;;;;;22.10;13.00;;;;;;;;;;5050247;28;20528;-79
2023/10/25 02:04:01;;;;;;;27.90;15.20;;;;;;;;;;5048058;28;20477;-78
2023/10/25 02:06:28;;;;;;;34.40;15.73;;;;;;;;;;5048707;28;20486;-79
2023/10/25 02:08:56;;;;;;;23.70;15.73;;;;;;;;;;5049498;28;20506;-81
2023/10/25 02:11:23;;;;;;;29.20;16.70;;;;;;;;;;5050264;28;20461;-79
2023/10/25 02:13:51;;;;;;;22.03;13.80;;;;;;;;;;5052241;28;20482;-78
2023/10/25 02:16:20;;;;;;;31.70;15.80;;;;;;;;;;5050327;28;20454;-79
2023/10/25 02:18:47;;;;;;;23.80;15.40;;;;;;;;;;5049844;28;20442;-80
2023/10/25 02:21:15;;;;;;;22.97;13.90;;;;;;;;;;5050588;28;20423;-80
2023/10/25 02:23:42;;;;;;;24.70;13.97;;;;;;;;;;5048700;28;20450;-82
2023/10/25 02:26:09;;;;;;;26.07;15.27;;;;;;;;;;5052647;28;20474;-80
2023/10/25 02:28:37;;;;;;;24.03;15.97;;;;;;;;;;5050648;28;20462;-81
2023/10/25 02:31:04;;;;;;;21.90;13.70;;;;;;;;;;5050110;28;20454;-80
2023/10/25 02:33:34;;;;;;;25.13;13.63;;;;;;;;;;5050718;28;20454;-81
2023/10/25 02:36:01;;;;;;;25.47;16.40;;;;;;;;;;5050459;28;20476;-81
2023/10/25 02:38:29;;;;;;;29.67;16.97;;;;;;;;;;5049521;28;20463;-82
2023/10/25 02:40:56;;;;;;;24.13;14.77;;;;;;;;;;5049558;28;20527;-81
2023/10/25 02:43:24;;;;;;;20.33;14.63;;;;;;;;;;5048375;28;20462;-81
2023/10/25 02:45:52;;;;;;;25.97;15.50;;;;;;;;;;5047735;28;20470;-81
2023/10/25 02:48:20;;;;;;;23.80;13.70;;;;;;;;;;5048058;28;20454;-80
2023/10/25 02:50:48;;;;;;;25.13;15.23;;;;;;;;;;5048703;28;20458;-81
2023/10/25 02:53:16;;;;;;;27.87;16.20;;;;;;;;;;5048463;28;20905;-81
2023/10/25 02:55:47;;;;;;;30.87;14.50;;;;;;;;;;5049141;28;20482;-81
2023/10/25 02:58:16;;;;;;;28.10;15.73;;;;;;;;;;5050763;28;20458;-80
2023/10/25 03:00:43;;;;;;;21.33;14.07;;;;;;;;;;5051744;28;20462;-80
2023/10/25 03:03:10;;;;;;;26.60;14.40;;;;;;;;;;5047431;28;20445;-81
2023/10/25 03:05:38;;;;;;;26.83;15.97;;;;;;;;;;5049375;28;20497;-81
2023/10/25 03:08:07;;;;;;;23.40;14.67;;;;;;;;;;5049505;28;20504;-81
2023/10/25 03:10:37;;;;;;;21.70;14.57;;;;;;;;;;5049492;28;20438;-81
2023/10/25 03:13:05;;;;;;;24.80;14.93;;;;;;;;;;5048931;28;20482;-79
2023/10/25 03:15:33;;;;;;;22.23;14.47;;;;;;;;;;5050176;28;20509;-80
2023/10/25 03:18:00;;;;;;;20.83;14.40;;;;;;;;;;5050208;28;20451;-80
2023/10/25 03:20:28;;;;;;;24.63;13.60;;;;;;;;;;5048764;28;20488;-81
2023/10/25 03:22:57;;;;;;;22.57;13.47;;;;;;;;;;5049677;28;20454;-81
2023/10/25 03:25:26;;;;;;;21.17;14.93;;;;;;;;;;5047010;28;20427;-80
2023/10/25 03:27:54;;;;;;;19.50;13.20;;;;;;;;;;5045463;28;20482;-81
2023/10/25 03:30:21;;;;;;;21.47;13.60;;;;;;;;;;5048682;28;20465;-78
2023/10/25 03:32:48;;;;;;;22.13;13.30;;;;;;;;;;5045129;28;20477;-78
2023/10/25 03:35:16;;;;;;;24.83;14.43;;;;;;;;;;5049080;28;20806;-80
2023/10/25 03:37:43;;;;;;;25.53;14.57;;;;;;;;;;5045315;28;20514;-79
2023/10/25 03:40:12;;;;;;;24.53;12.97;;;;;;;;;;5045088;28;20521;-78
2023/10/25 03:42:40;;;;;;;20.93;12.40;;;;;;;;;;5047443;28;20493;-80
2023/10/25 03:45:09;;;;;;;19.20;13.13;;;;;;;;;;5044406;28;21062;-81
2023/10/25 03:47:37;;;;;;;20.80;13.37;;;;;;;;;;5046639;28;20486;-81
2023/10/25 03:50:08;;;;;;;22.60;12.90;;;;;;;;;;5046434;28;20452;-81
2023/10/25 03:52:35;;;;;;;18.50;12.10;;;;;;;;;;5046004;28;20498;-81
2023/10/25 03:55:03;;;;;;;22.30;12.70;;;;;;;;;;5045962;28;20445;-82
2023/10/25 03:57:30;;;;;;;22.10;13.43;;;;;;;;;;5046393;28;20446;-80
2023/10/25 03:59:59;;;;;;;22.27;14.60;;;;;;;;;;5047955;28;20442;-81
2023/10/25 04:02:27;;;;;;;16.93;11.23;;;;;;;;;;5046071;28;20477;-77
2023/10/25 04:04:54;;;;;;;20.70;13.20;;;;;;;;;;5047088;28;20768;-80
2023/10/25 04:07:22;;;;;;;17.83;11.90;;;;;;;;;;5046239;28;20488;-81
2023/10/25 04:09:49;;;;;;;19.20;11.77;;;;;;;;;;5046566;28;20454;-80
2023/10/25 04:12:17;;;;;;;16.73;11.70;;;;;;;;;;5048623;28;20742;-80
2023/10/25 04:14:45;;;;;;;21.20;11.90;;;;;;;;;;5046455;28;20477;-82
2023/10/25 04:17:14;;;;;;;19.40;12.93;;;;;;;;;;5050384;28;20477;-80
2023/10/25 04:19:41;;;;;;;22.40;11.97;;;;;;;;;;5047595;28;20454;-78
2023/10/25 04:22:09;;;;;;;17.53;11.97;;;;;;;;;;5050199;28;20445;-79
2023/10/25 04:24:36;;;;;;;16.63;11.57;;;;;;;;;;5048078;28;20458;-81
2023/10/25 04:27:07;;;;;;;19.10;12.27;;;;;;;;;;5049222;28;20486;-80
2023/10/25 04:29:34;;;;;;;17.53;11.23;;;;;;;;;;5047146;28;20494;-81
2023/10/25 04:32:02;;;;;;;18.73;12.17;;;;;;;;;;5049449;28;20701;-80
2023/10/25 04:34:30;;;;;;;16.30;11.17;;;;;;;;;;5047710;28;20476;-80
2023/10/25 04:36:58;;;;;;;15.07;11.10;;;;;;;;;;5049629;28;20469;-79
2023/10/25 04:39:25;;;;;;;15.70;11.03;;;;;;;;;;5048321;28;20458;-80
2023/10/25 04:41:52;;;;;;;18.50;11.50;;;;;;;;;;5048566;28;20459;-82
2023/10/25 04:44:20;;;;;;;20.93;11.30;;;;;;;;;;5048795;28;20465;-78
2023/10/25 04:46:47;;;;;;;19.87;11.83;;;;;;;;;;5048353;28;20454;-81
2023/10/25 04:49:15;;;;;;;15.97;11.27;;;;;;;;;;5049062;28;20461;-79
2023/10/25 04:51:46;;;;;;;22.80;12.33;;;;;;;;;;5046251;28;20564;-80
2023/10/25 04:54:14;;;;;;;19.10;10.73;;;;;;;;;;5082001;28;20457;-80
2023/10/25 04:56:41;;;;;;;17.70;10.77;;;;;;;;;;5085773;28;20491;-80
2023/10/25 04:59:09;;;;;;;15.70;9.90;;;;;;;;;;5087344;28;20448;-80
2023/10/25 05:01:37;;;;;;;15.13;10.97;;;;;;;;;;5087050;28;20892;-81
2023/10/25 05:04:05;;;;;;;19.73;10.60;;;;;;;;;;5087304;28;20445;-80
2023/10/25 05:06:32;;;;;;;14.43;10.50;;;;;;;;;;5085599;28;20645;-80
2023/10/25 05:09:02;;;;;;;21.13;10.80;;;;;;;;;;5084953;28;20491;-80
2023/10/25 05:11:31;;;;;;;13.77;9.33;;;;;;;;;;5085960;28;20487;-81
2023/10/25 05:13:59;;;;;;;18.50;11.50;;;;;;;;;;5086459;28;20556;-80
2023/10/25 05:16:26;;;;;;;23.83;10.77;;;;;;;;;;5086268;28;20450;-80
2023/10/25 05:18:54;;;;;;;17.17;12.03;;;;;;;;;;5087032;28;20479;-79
2023/10/25 05:21:25;;;;;;;17.20;10.80;;;;;;;;;;5084862;28;20525;-79
2023/10/25 05:24:02;;;;;;;21.30;10.33;;;;;;;;;;5084344;28;20487;-80
2023/10/25 05:26:29;;;;;;;17.30;10.57;;;;;;;;;;5087324;28;20844;-81
2023/10/25 05:28:57;;;;;;;14.13;9.40;;;;;;;;;;5087990;28;20870;-81
2023/10/25 05:31:28;;;;;;;16.40;9.77;;;;;;;;;;5090983;28;20527;-81
2023/10/25 05:33:55;;;;;;;17.20;10.40;;;;;;;;;;5089007;28;20525;-79
2023/10/25 05:36:23;;;;;;;20.00;11.10;;;;;;;;;;5085610;28;20875;-79
2023/10/25 05:38:51;;;;;;;14.57;9.30;;;;;;;;;;5081863;28;20433;-79
2023/10/25 05:41:21;;;;;;;13.90;9.30;;;;;;;;;;5067866;28;20493;-80
2023/10/25 05:43:52;;;;;;;13.10;9.20;;;;;;;;;;5066952;28;20461;-80
2023/10/25 05:46:19;;;;;;;13.97;9.27;;;;;;;;;;5068951;28;20445;-79
2023/10/25 05:48:48;;;;;;;15.10;9.70;;;;;;;;;;5065882;28;20482;-79
2023/10/25 05:51:17;;;;;;;18.87;10.13;;;;;;;;;;5067901;28;20545;-79
2023/10/25 05:53:47;;;;;;;12.47;8.97;;;;;;;;;;5069086;28;20484;-80
2023/10/25 05:56:15;;;;;;;12.70;8.50;;;;;;;;;;5065061;28;20519;-80
2023/10/25 05:58:45;;;;;;;13.33;9.07;;;;;;;;;;5068652;28;20432;-80
2023/10/25 06:01:13;;;;;;;16.90;9.23;;;;;;;;;;5069691;28;20453;-80
2023/10/25 06:03:43;;;;;;;13.70;9.70;;;;;;;;;;5069762;28;20453;-80
2023/10/25 06:06:13;;;;;;;14.53;9.27;;;;;;;;;;5069619;28;20893;-81
2023/10/25 06:08:40;;;;;;;20.60;9.90;;;;;;;;;;5071218;28;20496;-79
2023/10/25 06:11:08;;;;;;;16.90;9.13;;;;;;;;;;5048558;28;20450;-79
2023/10/25 06:13:39;;;;;;;13.30;9.33;;;;;;;;;;5044932;28;20505;-80
2023/10/25 06:16:08;;;;;;;15.47;9.90;;;;;;;;;;5043926;28;20461;-81
2023/10/25 06:18:35;;;;;;;12.57;8.43;;;;;;;;;;5046561;28;20439;-78
2023/10/25 06:21:03;;;;;;;17.60;7.90;;;;;;;;;;5045405;28;20893;-78
2023/10/25 06:23:30;;;;;;;17.23;9.17;;;;;;;;;;5047312;28;20431;-80
2023/10/25 06:34:47;;;;;;;17.17;9.80;;;;;;;;;;5066664;28;20488;-80
2023/10/25 06:37:15;;;;;;;15.93;9.37;;;;;;;;;;5064481;28;20549;-81
2023/10/25 06:39:43;;;;;;;14.67;9.57;;;;;;;;;;5048381;28;20458;-81
2023/10/25 06:42:12;;;;;;;20.13;10.43;;;;;;;;;;5043977;28;20450;-79
2023/10/25 06:44:41;;;;;;;14.97;9.50;;;;;;;;;;5045578;28;20446;-79
2023/10/25 06:47:10;;;;;;;16.80;9.43;;;;;;;;;;5044154;28;20509;-79
2023/10/25 06:49:37;;;;;;;14.53;9.50;;;;;;;;;;5043559;28;20643;-79
2023/10/25 06:52:08;;;;;;;19.30;9.87;;;;;;;;;;5056816;28;20477;-79
2023/10/25 06:54:41;;;;;;;13.97;8.67;;;;;;;;;;5064249;28;20469;-79
2023/10/25 06:57:10;;;;;;;14.20;9.40;;;;;;;;;;5064086;28;20472;-79
2023/10/25 06:59:38;;;;;;;16.67;8.43;;;;;;;;;;5066955;28;20469;-79
2023/10/25 07:02:11;;;;;;;13.10;8.20;;;;;;;;;;5062883;28;20849;-80
2023/10/25 07:04:41;;;;;;;16.70;8.97;;;;;;;;;;5061640;28;20666;-80
2023/10/25 07:07:10;;;;;;;14.43;9.53;;;;;;;;;;5063436;28;20442;-79
2023/10/25 07:09:52;;;;;;;14.17;8.60;;;;;;;;;;5064742;28;20511;-79
2023/10/25 07:12:20;;;;;;;15.10;8.33;;;;;;;;;;5063787;28;20453;-80
2023/10/25 07:14:47;;;;;;;11.97;8.17;;;;;;;;;;5064148;28;20463;-82
2023/10/25 07:17:15;;;;;;;15.70;8.70;;;;;;;;;;5067255;28;20457;-79
2023/10/25 07:19:43;;;;;;;15.63;8.87;;;;;;;;;;5064245;28;20453;-79
2023/10/25 07:22:15;;;;;;;12.80;8.53;;;;;;;;;;5060573;28;20920;-79
2023/10/25 07:24:42;;;;;;;14.60;9.23;;;;;;;;;;5053618;28;20453;-81
2023/10/25 07:27:10;;;;;;;14.97;9.17;;;;;;;;;;5057336;28;20465;-79
2023/10/25 07:29:39;;;;;;;22.43;15.47;;;;;;;;;;5059184;28;20481;-79
2023/10/25 07:32:07;;;;;;;19.73;11.17;;;;;;;;;;5068230;28;20520;-80
2023/10/25 07:34:37;;;;;;;16.83;11.77;;;;;;;;;;5071990;28;20477;-78
2023/10/25 07:37:06;;;;;;;14.00;8.93;;;;;;;;;;5060378;28;20520;-80
2023/10/25 07:39:36;;;;;;;16.93;9.67;;;;;;;;;;5052386;28;20462;-80
2023/10/25 07:42:04;;;;;;;16.23;9.90;;;;;;;;;;5062100;28;20480;-79
2023/10/25 07:44:31;;;;;;;18.90;10.53;;;;;;;;;;5053864;28;20945;-80
2023/10/25 07:46:59;;;;;;;16.00;9.90;;;;;;;;;;5053529;28;20472;-81
2023/10/25 07:49:26;;;;;;;15.30;9.70;;;;;;;;;;5057209;28;20505;-79
2023/10/25 07:51:54;;;;;;;17.87;9.97;;;;;;;;;;5048372;28;20466;-80
2023/10/25 07:54:22;;;;;;;13.53;9.73;;;;;;;;;;5057222;28;20488;-80
2023/10/25 07:56:51;;;;;;;13.03;9.80;;;;;;;;;;5063101;28;20475;-79
2023/10/25 07:59:19;;;;;;;14.63;9.43;;;;;;;;;;5061205;28;20437;-78
2023/10/25 08:01:49;;;;;;;12.60;8.30;;;;;;;;;;5065653;28;20473;-80
2023/10/25 08:04:17;;;;;;;15.70;9.77;;;;;;;;;;5049341;28;20465;-77
2023/10/25 08:06:44;;;;;;;13.30;9.40;;;;;;;;;;5052433;28;20458;-78
2023/10/25 08:09:11;;;;;;;14.87;9.43;;;;;;;;;;5054967;28;20568;-78
2023/10/25 08:11:39;;;;;;;14.50;9.60;;;;;;;;;;5043631;28;20450;-80
2023/10/25 08:14:08;;;;;;;14.50;9.50;;;;;;;;;;5046664;28;20461;-79
2023/10/25 08:16:39;;;;;;;18.57;11.47;;;;;;;;;;5065584;28;20453;-80
2023/10/25 08:19:06;;;;;;;15.07;9.93;;;;;;;;;;5061851;28;20523;-79
2023/10/25 08:21:35;;;;;;;17.93;10.60;;;;;;;;;;5068845;28;20453;-80
2023/10/25 08:24:05;;;;;;;17.60;9.90;;;;;;;;;;5045162;28;20993;-79
2023/10/25 08:26:35;;;;;;;14.30;9.23;;;;;;;;;;5044179;28;20639;-79
2023/10/25 08:29:03;;;;;;;13.23;8.47;;;;;;;;;;5047409;28;20481;-80
2023/10/25 08:37:26;;;;;;;19.10;8.93;;;;;;;;;;5522771;22;20460;-75
2023/10/25 08:39:56;;;;;;;15.07;8.30;;;;;;;;;;5051408;28;20446;-73
2023/10/25 08:42:48;;;;;;;11.33;7.70;;;;;;;;;;5055165;28;20483;-75
2023/10/25 08:45:36;;;;;;;12.67;7.87;;;;;;;;;;5052192;28;20467;-74
2023/10/25 08:48:04;;;;;;;10.43;7.17;;;;;;;;;;5057676;28;20511;-74
2023/10/25 08:50:55;;;;;;;9.63;7.00;;;;;;;;;;5014970;28;20469;-76
2023/10/25 08:53:32;;;;;;;10.17;6.20;;;;;;;;;;5042921;28;20481;-75
2023/10/25 08:56:05;;;;;;;12.57;7.00;;;;;;;;;;5054565;28;20469;-77
2023/10/25 08:58:34;;;;;;;8.10;6.33;;;;;;;;;;5052367;28;20515;-76
2023/10/25 09:01:10;;;;;;;8.93;5.90;;;;;;;;;;5038236;28;20458;-75
2023/10/25 09:03:49;;;;;;;10.33;5.87;;;;;;;;;;5040004;28;21200;-75
2023/10/25 09:06:37;;;;;;;7.90;5.87;;;;;;;;;;5048062;28;20449;-73
2023/10/25 09:09:14;;;;;;;12.80;5.90;;;;;;;;;;5042925;28;20496;-75
2023/10/25 09:11:45;;;;;;;10.97;5.23;;;;;;;;;;5060836;28;20511;-76
2023/10/25 09:14:14;;;;;;;11.63;4.97;;;;;;;;;;5057589;28;20457;-76
2023/10/25 09:19:51;;;;;;;12.93;4.53;;;;;;;;;;5057940;28;20445;-75
2023/10/25 09:22:25;;;;;;;9.80;3.70;;;;;;;;;;5051707;28;20484;-75
2023/10/25 09:25:13;;;;;;;8.83;4.50;;;;;;;;;;5062549;28;20863;-76
2023/10/25 09:28:01;;;;;;;8.70;5.13;;;;;;;;;;5059112;28;20592;-77
2023/10/25 09:30:37;;;;;;;8.70;4.57;;;;;;;;;;5053042;28;20541;-76
2023/10/25 09:33:06;;;;;;;13.90;4.10;;;;;;;;;;5067502;28;20469;-75
2023/10/25 09:35:38;;;;;;;10.67;4.10;;;;;;;;;;5051796;28;20512;-76
2023/10/25 09:38:06;;;;;;;7.77;3.90;;;;;;;;;;5058110;28;20515;-76
2023/10/25 09:40:57;;;;;;;8.73;3.73;;;;;;;;;;5059068;28;20448;-76
2023/10/25 09:46:24;;;;;;;7.53;5.00;;;;;;;;;;5028722;28;20450;-77
2023/10/25 09:52:23;;;;;;;6.87;3.83;;;;;;;;;;5035660;28;20546;-78
2023/10/25 09:55:33;;;;;;;7.10;3.77;;;;;;;;;;5059375;28;20463;-77
2023/10/25 09:58:20;;;;;;;8.47;3.57;;;;;;;;;;5073236;28;20461;-76
2023/10/25 10:04:26;;;;;;;10.90;4.03;;;;;;;;;;5055862;28;20485;-78
2023/10/25 10:09:55;;;;;;;6.03;2.77;;;;;;;;;;5071798;28;20515;-78
2023/10/25 10:19:01;;;;;;;7.43;3.37;;;;;;;;;;4979352;28;20445;-78
2023/10/25 10:36:07;;;;;;;7.57;2.40;;;;;;;;;;5048598;28;20234;-76
2023/10/25 10:39:12;;;;;;;;;;;;;;;;;;;;;
2023/10/25 10:47:45;;;;;;;5.13;2.63;;;;;;;;;;5043669;28;20472;-78
2023/10/25 10:50:21;;;;;;;8.77;4.67;;;;;;;;;;5061880;28;20587;-78
2023/10/25 10:52:57;;;;;;;10.40;6.00;;;;;;;;;;5056244;28;20464;-78
2023/10/25 10:55:53;;;;;;;7.93;3.80;;;;;;;;;;5060000;28;20465;-76
2023/10/25 11:01:31;;;;;;;8.07;2.60;;;;;;;;;;5017704;28;20439;-76
2023/10/25 11:04:03;;;;;;;7.20;3.00;;;;;;;;;;5023186;28;21069;-76
2023/10/25 11:15:30;;;;;;;6.87;3.20;;;;;;;;;;5014974;28;21202;-77
2023/10/25 11:24:17;;;;;;;7.90;4.83;;;;;;;;;;5015291;28;20840;-76
2023/10/25 11:29:52;;;;;;;10.17;4.30;;;;;;;;;;5045527;28;20572;-76
2023/10/25 11:40:51;;;;;;;10.07;3.73;;;;;;;;;;5038090;28;20839;-77
2023/10/25 11:43:35;;;;;;;12.50;5.00;;;;;;;;;;5042019;28;20481;-76
2023/10/25 11:49:19;;;;;;;7.20;3.00;;;;;;;;;;5060414;28;20493;-76
2023/10/25 11:51:58;;;;;;;11.07;4.73;;;;;;;;;;5062941;28;20469;-76
2023/10/25 11:54:44;;;;;;;13.83;6.70;;;;;;;;;;5038151;28;20458;-76
2023/10/25 11:57:25;;;;;;;5.30;2.80;;;;;;;;;;5063739;28;20507;-77
2023/10/25 12:00:29;;;;;;;14.63;8.13;;;;;;;;;;5070889;28;21084;-75
2023/10/25 12:02:57;;;;;;;6.70;4.00;;;;;;;;;;5069240;28;20731;-77
2023/10/25 12:05:38;;;;;;;11.40;4.77;;;;;;;;;;5071078;28;20544;-77
2023/10/25 12:08:06;;;;;;;15.50;7.90;;;;;;;;;;5068276;28;20457;-75
2023/10/25 12:10:39;;;;;;;5.30;2.90;;;;;;;;;;5068822;28;20495;-75
2023/10/25 12:13:31;;;;;;;8.60;3.33;;;;;;;;;;5068080;28;21023;-75
2023/10/25 12:16:10;;;;;;;4.07;2.20;;;;;;;;;;5071889;28;20462;-76
2023/10/25 12:18:43;;;;;;;7.23;3.30;;;;;;;;;;5070831;28;20475;-76
2023/10/25 12:21:16;;;;;;;7.00;3.27;;;;;;;;;;5068675;28;20549;-75
2023/10/25 12:23:49;;;;;;;12.80;3.17;;;;;;;;;;5069907;28;21080;-76
2023/10/25 12:26:29;;;;;;;9.03;4.40;;;;;;;;;;5073765;28;20452;-77
2023/10/25 12:29:10;;;;;;;6.47;3.33;;;;;;;;;;5069221;28;20883;-77
2023/10/25 12:31:57;;;;;;;6.30;3.63;;;;;;;;;;5074021;28;20774;-75
2023/10/25 12:34:31;;;;;;;10.27;3.10;;;;;;;;;;5067909;28;20549;-76
2023/10/25 12:42:58;;;;;;;8.30;2.23;;;;;;;;;;5049937;28;20457;-76
2023/10/25 12:51:44;;;;;;;13.50;4.40;;;;;;;;;;5072758;28;20587;-77
2023/10/25 13:01:38;;;;;;;8.57;2.40;;;;;;;;;;5058437;28;20560;-79
2023/10/25 13:07:21;;;;;;;11.97;4.27;;;;;;;;;;5089370;28;20455;-74
2023/10/25 13:20:39;;;;;;;8.67;1.83;;;;;;;;;;5846206;22;20481;-79
2023/10/25 13:23:09;;;;;;;6.43;2.80;;;;;;;;;;5066275;28;20475;-79
2023/10/25 13:25:37;;;;;;;8.17;1.90;;;;;;;;;;5065942;28;20475;-80
2023/10/25 13:28:12;;;;;;;4.17;1.87;;;;;;;;;;5058524;28;20466;-79
2023/10/25 13:31:10;;;;;;;6.60;1.80;;;;;;;;;;5044643;28;20492;-79
2023/10/25 13:34:12;;;;;;;4.60;1.90;;;;;;;;;;5061331;28;20527;-79
2023/10/25 13:36:49;;;;;;;6.50;2.17;;;;;;;;;;5049284;28;20565;-80
2023/10/25 13:39:28;;;;;;;7.37;2.20;;;;;;;;;;5049455;28;20454;-79
2023/10/25 13:47:52;;;;;;;7.63;3.23;;;;;;;;;;5037958;28;20449;-82
2023/10/25 13:50:27;;;;;;;4.53;3.40;;;;;;;;;;5046407;28;20508;-80
2023/10/25 13:53:22;;;;;;;34.47;26.47;;;;;;;;;;5058028;28;20489;-81
2023/10/25 13:55:55;;;;;;;5.47;2.47;;;;;;;;;;5037637;28;20871;-79
2023/10/25 13:59:00;;;;;;;6.00;2.90;;;;;;;;;;5069426;28;20461;-78
2023/10/25 14:01:55;;;;;;;6.53;2.50;;;;;;;;;;5009815;28;20470;-79
2023/10/25 14:04:40;;;;;;;10.13;4.07;;;;;;;;;;5051335;28;20470;-77
2023/10/25 14:07:08;;;;;;;10.87;3.83;;;;;;;;;;5041146;28;20466;-78
2023/10/25 14:09:43;;;;;;;5.40;1.87;;;;;;;;;;5034950;28;20487;-79
2023/10/25 14:12:28;;;;;;;5.87;2.43;;;;;;;;;;5033681;28;20469;-80
2023/10/25 14:14:57;;;;;;;6.00;2.57;;;;;;;;;;5036755;28;20501;-78
2023/10/25 14:17:26;;;;;;;6.30;2.50;;;;;;;;;;5042508;28;20461;-80
2023/10/25 14:19:54;;;;;;;5.73;2.60;;;;;;;;;;5048483;28;20497;-81
2023/10/25 14:22:29;;;;;;;7.80;3.57;;;;;;;;;;5040065;28;20516;-78
2023/10/25 14:24:59;;;;;;;108.20;84.30;;;;;;;;;;5039181;28;20469;-78
2023/10/25 14:27:40;;;;;;;14.27;7.10;;;;;;;;;;5032671;28;20498;-79
2023/10/25 14:30:38;;;;;;;7.60;3.97;;;;;;;;;;5040276;28;20482;-78
2023/10/25 14:33:07;;;;;;;5.23;3.00;;;;;;;;;;5038094;28;20466;-80
2023/10/25 14:35:36;;;;;;;4.07;2.70;;;;;;;;;;5031725;28;20501;-77
2023/10/25 14:38:05;;;;;;;5.53;2.60;;;;;;;;;;5058271;28;20462;-79
2023/10/25 14:40:33;;;;;;;4.83;2.63;;;;;;;;;;5047978;28;20446;-78
2023/10/25 14:43:01;;;;;;;4.03;3.00;;;;;;;;;;5057940;28;20523;-79
2023/10/25 14:45:30;;;;;;;6.20;3.00;;;;;;;;;;5061043;28;20466;-79
2023/10/25 14:47:58;;;;;;;7.07;4.03;;;;;;;;;;5045358;28;20529;-78
2023/10/25 14:50:31;;;;;;;7.23;3.80;;;;;;;;;;5057669;28;20493;-78
2023/10/25 14:52:59;;;;;;;5.70;3.53;;;;;;;;;;5060915;28;20451;-79
2023/10/25 14:55:47;;;;;;;5.77;4.20;;;;;;;;;;5064277;28;20956;-79
2023/10/25 15:01:19;;;;;;;11.13;3.80;;;;;;;;;;5049610;28;20468;-80
2023/10/25 15:03:48;;;;;;;6.77;4.00;;;;;;;;;;5039768;28;20501;-79
2023/10/25 15:06:18;;;;;;;7.40;4.27;;;;;;;;;;5039307;28;20445;-78
2023/10/25 15:08:46;;;;;;;8.10;4.17;;;;;;;;;;5058266;28;20489;-77
2023/10/25 15:11:14;;;;;;;6.80;4.10;;;;;;;;;;5058269;28;20467;-78
2023/10/25 15:13:54;;;;;;;8.67;4.20;;;;;;;;;;5039908;28;20512;-78
2023/10/25 15:16:24;;;;;;;7.80;4.67;;;;;;;;;;5059373;28;20465;-80
2023/10/25 15:18:52;;;;;;;8.53;5.00;;;;;;;;;;5058847;28;20534;-80
2023/10/25 15:21:22;;;;;;;7.97;4.93;;;;;;;;;;5064141;28;20441;-79
2023/10/25 15:23:51;;;;;;;6.93;4.30;;;;;;;;;;5070519;28;20453;-79
2023/10/25 15:26:24;;;;;;;6.33;4.27;;;;;;;;;;5062242;28;20878;-77
2023/10/25 15:28:53;;;;;;;11.53;4.90;;;;;;;;;;5050883;28;20561;-78
2023/10/25 15:31:21;;;;;;;6.50;5.10;;;;;;;;;;5051600;28;20490;-78
2023/10/25 15:33:52;;;;;;;7.60;4.40;;;;;;;;;;5051078;28;20510;-77
2023/10/25 15:36:21;;;;;;;6.73;4.50;;;;;;;;;;5050169;28;20486;-78
2023/10/25 15:38:49;;;;;;;7.50;5.17;;;;;;;;;;5055639;28;20532;-79
2023/10/25 15:41:19;;;;;;;8.40;5.03;;;;;;;;;;5059721;28;20860;-79
2023/10/25 15:43:46;;;;;;;11.90;6.13;;;;;;;;;;5060666;28;20493;-79
2023/10/25 15:46:14;;;;;;;8.17;5.10;;;;;;;;;;5065280;28;20829;-80
2023/10/25 15:48:45;;;;;;;10.73;6.80;;;;;;;;;;5058533;28;20446;-80
2023/10/25 15:51:15;;;;;;;5.90;4.97;;;;;;;;;;5062158;28;20495;-79
2023/10/25 15:53:44;;;;;;;6.87;6.17;;;;;;;;;;5056687;28;20504;-79
2023/10/25 15:56:12;;;;;;;8.83;5.70;;;;;;;;;;5057416;28;20465;-81
2023/10/25 15:58:42;;;;;;;10.00;7.27;;;;;;;;;;5067476;28;20464;-80
2023/10/25 16:01:10;;;;;;;7.10;5.37;;;;;;;;;;5062840;28;20473;-80
2023/10/25 16:03:38;;;;;;;7.40;5.00;;;;;;;;;;5069962;28;20462;-79
2023/10/25 16:06:28;;;;;;;9.37;6.80;;;;;;;;;;5070075;28;20458;-78
2023/10/25 16:08:59;;;;;;;6.73;4.60;;;;;;;;;;5063949;28;20488;-81
2023/10/25 16:11:27;;;;;;;7.63;5.40;;;;;;;;;;5059779;28;20559;-79
2023/10/25 16:13:58;;;;;;;12.43;5.77;;;;;;;;;;5057279;28;20454;-79
2023/10/25 16:16:28;;;;;;;9.63;5.53;;;;;;;;;;5059475;28;20773;-79
2023/10/25 16:18:56;;;;;;;8.27;5.30;;;;;;;;;;5060188;28;20513;-79
2023/10/25 16:21:27;;;;;;;7.93;5.60;;;;;;;;;;5067096;28;20446;-79
2023/10/25 16:24:01;;;;;;;8.33;5.83;;;;;;;;;;5068844;28;20461;-79
2023/10/25 16:26:28;;;;;;;6.50;4.90;;;;;;;;;;5066934;28;20458;-79
2023/10/25 16:29:08;;;;;;;8.83;5.73;;;;;;;;;;5062114;28;20552;-80
2023/10/25 16:31:36;;;;;;;6.20;4.87;;;;;;;;;;5064732;28;20495;-80
2023/10/25 16:34:04;;;;;;;7.30;4.87;;;;;;;;;;5063286;28;20426;-79
2023/10/25 16:36:31;;;;;;;8.73;5.27;;;;;;;;;;5058876;28;20717;-81
2023/10/25 16:39:01;;;;;;;7.97;4.93;;;;;;;;;;5060711;28;20470;-78
2023/10/25 16:41:28;;;;;;;9.70;5.23;;;;;;;;;;5065004;28;20489;-79
2023/10/25 16:43:56;;;;;;;10.67;5.50;;;;;;;;;;5070139;28;20518;-79
2023/10/25 16:46:23;;;;;;;10.43;6.07;;;;;;;;;;5066207;28;20441;-78
2023/10/25 16:48:52;;;;;;;9.97;5.47;;;;;;;;;;5073069;28;20449;-77
2023/10/25 16:51:22;;;;;;;9.77;5.63;;;;;;;;;;5084053;28;20488;-79
2023/10/25 16:53:50;;;;;;;7.23;5.60;;;;;;;;;;5080982;28;20456;-78
2023/10/25 16:56:21;;;;;;;7.87;5.90;;;;;;;;;;5079920;28;20452;-79
2023/10/25 16:58:49;;;;;;;8.53;5.73;;;;;;;;;;5078416;28;20779;-78
2023/10/25 17:01:17;;;;;;;8.07;5.70;;;;;;;;;;5069179;28;20521;-76
2023/10/25 17:03:45;;;;;;;10.20;5.60;;;;;;;;;;5051280;28;20576;-80